In Rescue
 
Open Full Screen Window  High Contrast Mode
Wind Gusting 00 knots
07
October 25, 2021 3:21 PM EDT
Weather Information
Wind Direction
  020 °
Wind Speed
  07 kt (8 mph)
Wind Gust
  00 kt (0 mph)
Variable Wind
350°
080°
Altimeter
30.00 in
Visibility
10 SM
Temperature
11° C
52° F
Dewpoint
04° C
39° F
Humidity
62%
Sky Condition
Scattered @ 3,900 ft
Scattered @ 3,100 ft
VFR

METAR KFKS 251921Z AUTO 02007KT 350V080 10SM SCT031 SCT039 11/04 A3000 RMK AO2 T01060043

FAA Disclaimer: The data displayed is for advisory purposes only and is not to be used for flight planning or operations.